createdAt,value
2022-08-03T00:02:17.464Z,101043.72
2022-08-03T00:04:45.517Z,101041.31
2022-08-03T00:07:12.997Z,101042.28
2022-08-03T00:09:42.871Z,101039.97
2022-08-03T00:12:10.759Z,101037.66
2022-08-03T00:14:38.240Z,101036.78
2022-08-03T00:17:06.000Z,101039.22
2022-08-03T00:19:33.550Z,101034.69
2022-08-03T00:22:01.237Z,101036.97
2022-08-03T00:24:31.235Z,101041.63
2022-08-03T00:26:58.814Z,101044.03
2022-08-03T00:29:28.975Z,101052.19
2022-08-03T00:32:00.102Z,101046.31
2022-08-03T00:34:54.324Z,101039.47
2022-08-03T00:37:19.253Z,101038.66
2022-08-03T00:39:48.116Z,101044.28
2022-08-03T00:42:16.060Z,101046.81
2022-08-03T00:44:44.087Z,101045.22
2022-08-03T00:47:11.616Z,101042.44
2022-08-03T00:49:41.043Z,101037.53
2022-08-03T00:52:09.965Z,101037.81
2022-08-03T00:54:40.370Z,101032.84
2022-08-03T00:57:08.184Z,101036.59
2022-08-03T00:59:35.944Z,101038.41
2022-08-03T01:02:03.386Z,101032.63
2022-08-03T01:04:30.965Z,101031.84
2022-08-03T01:07:10.652Z,101036.56
2022-08-03T01:09:57.797Z,101032.94
2022-08-03T01:12:31.245Z,101037.50
2022-08-03T01:14:59.443Z,101030.47
2022-08-03T01:17:32.998Z,101032.22
2022-08-03T01:20:13.858Z,101029.16
2022-08-03T01:22:59.972Z,101025.66
2022-08-03T01:25:42.583Z,101031.16
2022-08-03T01:28:15.798Z,101031.56
2022-08-03T01:30:44.473Z,101032.00
2022-08-03T01:33:19.377Z,101030.56
2022-08-03T01:35:47.712Z,101035.06
2022-08-03T01:38:25.178Z,101029.72
2022-08-03T01:40:56.067Z,101025.84
2022-08-03T01:44:27.174Z,101027.38
2022-08-03T01:46:12.834Z,101028.19
2022-08-03T01:48:44.274Z,101023.06
2022-08-03T01:51:11.880Z,101019.81
2022-08-03T01:53:43.618Z,101012.81
2022-08-03T01:56:14.727Z,101011.63
2022-08-03T01:58:44.758Z,101013.28
2022-08-03T02:01:13.823Z,101011.53
2022-08-03T02:03:59.982Z,101023.44
2022-08-03T02:07:00.601Z,101012.47
2022-08-03T02:09:21.097Z,101010.66
2022-08-03T02:11:51.342Z,101016.41
2022-08-03T02:14:19.058Z,101015.97
2022-08-03T02:16:46.764Z,101009.97
2022-08-03T02:19:14.655Z,101015.97
2022-08-03T02:21:56.559Z,101016.88
2022-08-03T02:24:29.524Z,101016.06
2022-08-03T02:26:57.244Z,101005.81
2022-08-03T02:29:39.069Z,101000.44
2022-08-03T02:32:13.305Z,101006.22
2022-08-03T02:34:44.181Z,101000.91
2022-08-03T02:37:15.567Z,101002.03
2022-08-03T02:39:43.042Z,100999.84
2022-08-03T02:42:12.163Z,100996.47
2022-08-03T02:44:40.509Z,101002.34
2022-08-03T02:47:10.411Z,100994.56
2022-08-03T02:49:50.173Z,100997.91
2022-08-03T02:52:20.500Z,101002.38
2022-08-03T02:54:48.184Z,101000.44
2022-08-03T02:57:15.704Z,100994.22
2022-08-03T02:59:43.287Z,100998.34
2022-08-03T03:02:10.962Z,101000.63
2022-08-03T03:04:38.525Z,101004.34
2022-08-03T03:07:23.289Z,100992.34
2022-08-03T03:09:51.156Z,100997.13
2022-08-03T03:12:21.005Z,100991.81
2022-08-03T03:14:48.501Z,100995.84
2022-08-03T03:17:16.884Z,100992.72
2022-08-03T03:19:45.670Z,101003.75
2022-08-03T03:22:16.400Z,100998.13
2022-08-03T03:24:47.333Z,100998.13
2022-08-03T03:27:16.694Z,101002.97
2022-08-03T03:29:46.802Z,100988.00
2022-08-03T03:32:14.480Z,100993.75
2022-08-03T03:34:44.616Z,100998.59
2022-08-03T03:37:14.338Z,101001.13
2022-08-03T03:39:41.975Z,101001.34
2022-08-03T03:42:12.061Z,101004.22
2022-08-03T03:44:39.716Z,101003.28
2022-08-03T03:47:07.314Z,101001.91
2022-08-03T03:49:34.801Z,100999.63
2022-08-03T03:52:02.376Z,100999.63
2022-08-03T03:54:39.909Z,101002.38
2022-08-03T03:57:10.432Z,100999.72
2022-08-03T03:59:43.062Z,101003.03
2022-08-03T04:02:11.318Z,101004.78
2022-08-03T04:04:56.879Z,100997.03
2022-08-03T04:07:43.456Z,100994.56
2022-08-03T04:10:29.767Z,101002.59
2022-08-03T04:12:59.959Z,100997.91
2022-08-03T04:15:27.851Z,101005.81
2022-08-03T04:17:58.986Z,101001.44
2022-08-03T04:20:27.199Z,100999.94
2022-08-03T04:22:55.613Z,101007.66
2022-08-03T04:25:25.838Z,101006.28
2022-08-03T04:28:08.235Z,101014.47
2022-08-03T04:30:48.040Z,101006.84
2022-08-03T04:33:15.686Z,101021.16
2022-08-03T04:36:00.880Z,101012.22
2022-08-03T04:38:32.274Z,101012.00
2022-08-03T04:40:59.886Z,101021.34
2022-08-03T04:43:29.796Z,101015.28
2022-08-03T04:45:57.306Z,101018.50
2022-08-03T04:48:24.918Z,101020.22
2022-08-03T04:50:52.371Z,101024.38
2022-08-03T04:53:19.785Z,101034.00
2022-08-03T04:55:47.299Z,101033.38
2022-08-03T04:58:14.681Z,101032.38
2022-08-03T05:00:43.227Z,101036.53
2022-08-03T05:03:19.574Z,101036.72
2022-08-03T05:05:52.246Z,101038.38
2022-08-03T05:08:27.925Z,101043.72
2022-08-03T05:10:58.874Z,101038.84
2022-08-03T05:13:29.882Z,101035.78
2022-08-03T05:15:57.330Z,101041.94
2022-08-03T05:18:24.691Z,101040.34
2022-08-03T05:20:52.124Z,101043.03
2022-08-03T05:23:20.159Z,101046.00
2022-08-03T05:25:49.676Z,101041.16
2022-08-03T05:28:20.032Z,101042.44
2022-08-03T05:30:47.391Z,101048.41
2022-08-03T05:33:14.923Z,101039.97
2022-08-03T05:35:57.217Z,101043.94
2022-08-03T05:38:34.667Z,101044.75
2022-08-03T05:41:23.365Z,101043.28
2022-08-03T05:43:52.073Z,101039.00
2022-08-03T05:46:19.484Z,101042.63
2022-08-03T05:48:46.846Z,101053.41
2022-08-03T05:51:14.058Z,101041.16
2022-08-03T05:53:42.049Z,101039.56
2022-08-03T05:56:13.617Z,101036.97
2022-08-03T05:58:46.346Z,101042.19
2022-08-03T06:01:13.940Z,101040.81
2022-08-03T06:03:41.267Z,101046.94
2022-08-03T06:06:08.526Z,101044.88
2022-08-03T06:08:35.847Z,101049.25
2022-08-03T06:11:03.454Z,101048.19
2022-08-03T06:13:50.848Z,101052.97
2022-08-03T06:16:18.042Z,101058.09
2022-08-03T06:18:46.057Z,101058.25
2022-08-03T06:21:15.399Z,101069.00
2022-08-03T06:23:54.141Z,101071.13
2022-08-03T06:26:23.558Z,101074.88
2022-08-03T06:28:51.578Z,101078.91
2022-08-03T06:31:22.854Z,101082.09
2022-08-03T06:34:34.262Z,101077.66
2022-08-03T06:36:37.380Z,101083.22
2022-08-03T06:39:05.911Z,101081.09
2022-08-03T06:41:38.086Z,101089.69
2022-08-03T06:44:12.800Z,101087.72
2022-08-03T06:46:40.061Z,101087.47
2022-08-03T06:49:10.823Z,101079.72
2022-08-03T06:52:05.424Z,101088.19
2022-08-03T06:54:25.394Z,101090.78
2022-08-03T06:56:52.634Z,101096.41
2022-08-03T07:00:09.298Z,101093.97
2022-08-03T07:02:09.702Z,101093.44
2022-08-03T07:04:37.174Z,101097.72
2022-08-03T07:07:04.515Z,101095.59
2022-08-03T07:09:32.071Z,101086.00
2022-08-03T07:12:02.308Z,101084.38
2022-08-03T07:14:33.326Z,101088.56
2022-08-03T07:17:00.547Z,101093.47
2022-08-03T07:19:28.020Z,101094.38
2022-08-03T07:21:55.551Z,101098.03
2022-08-03T07:24:29.464Z,101103.00
2022-08-03T07:26:56.682Z,101102.78
2022-08-03T07:29:23.865Z,101099.06
2022-08-03T07:31:51.019Z,101098.59
2022-08-03T07:34:18.311Z,101090.09
2022-08-03T07:36:45.569Z,101094.91
2022-08-03T07:39:15.900Z,101097.81
2022-08-03T07:41:45.459Z,101100.47
2022-08-03T07:44:12.661Z,101098.13
2022-08-03T07:46:39.862Z,101095.84
2022-08-03T07:49:07.077Z,101106.00
2022-08-03T07:51:34.652Z,101096.28
2022-08-03T07:54:01.991Z,101099.19
2022-08-03T07:56:29.286Z,101100.25
2022-08-03T07:58:56.463Z,101103.91
2022-08-03T08:01:23.939Z,101104.22
2022-08-03T08:03:53.346Z,101095.59
2022-08-03T08:06:21.155Z,101095.78
2022-08-03T08:08:48.323Z,101104.88
2022-08-03T08:11:18.196Z,101097.25
2022-08-03T08:13:45.379Z,101098.78
2022-08-03T08:16:12.574Z,101089.94
2022-08-03T08:18:39.758Z,101104.81
2022-08-03T08:21:06.932Z,101094.72
2022-08-03T08:23:41.862Z,101098.00
2022-08-03T08:26:10.510Z,101097.69
2022-08-03T08:28:37.715Z,101093.84
2022-08-03T08:31:05.054Z,101091.00
2022-08-03T08:33:54.334Z,101091.31
2022-08-03T08:36:19.681Z,101097.97
2022-08-03T08:38:50.144Z,101095.84
2022-08-03T08:41:17.387Z,101100.00
2022-08-03T08:43:44.564Z,101091.69
2022-08-03T08:46:12.137Z,101087.66
2022-08-03T08:48:42.565Z,101092.56
2022-08-03T08:51:09.904Z,101097.31
2022-08-03T08:53:40.053Z,101095.16
2022-08-03T08:56:07.253Z,101094.25
2022-08-03T08:58:39.577Z,101095.97
2022-08-03T09:01:12.297Z,101093.13
2022-08-03T09:03:44.958Z,101096.69
2022-08-03T09:06:12.263Z,101087.16
2022-08-03T09:08:39.546Z,101093.31
2022-08-03T09:11:07.721Z,101088.56
2022-08-03T09:13:38.556Z,101087.56
2022-08-03T09:16:15.795Z,101092.47
2022-08-03T09:18:45.677Z,101085.41
2022-08-03T09:21:31.132Z,101092.75
2022-08-03T09:24:02.766Z,101085.25
2022-08-03T09:26:33.295Z,101079.25
2022-08-03T09:29:05.969Z,101081.31
2022-08-03T09:31:43.631Z,101079.72
2022-08-03T09:34:34.413Z,101086.78
2022-08-03T09:37:04.807Z,101081.56
2022-08-03T09:39:40.923Z,101082.47
2022-08-03T09:42:15.003Z,101079.59
2022-08-03T09:44:46.673Z,101084.06
2022-08-03T09:47:32.674Z,101070.94
2022-08-03T09:50:02.304Z,101076.16
2022-08-03T09:52:49.317Z,101071.91
2022-08-03T09:56:35.003Z,101065.22
2022-08-03T09:58:17.135Z,101070.44
2022-08-03T10:00:54.880Z,101072.03
2022-08-03T10:03:26.004Z,101072.78
2022-08-03T10:05:59.032Z,101065.22
2022-08-03T10:08:33.154Z,101063.22
2022-08-03T10:11:05.001Z,101060.72
2022-08-03T10:13:32.349Z,101056.88
2022-08-03T10:16:25.306Z,101053.53
2022-08-03T10:18:51.929Z,101039.72
2022-08-03T10:21:21.245Z,101050.88
2022-08-03T10:23:48.586Z,101049.78
2022-08-03T10:26:16.757Z,101041.91
2022-08-03T10:28:47.183Z,101043.13
2022-08-03T10:31:14.536Z,101047.91
2022-08-03T10:33:49.737Z,101037.59
2022-08-03T10:36:19.918Z,101039.91
2022-08-03T10:38:52.603Z,101028.81
2022-08-03T10:41:20.780Z,101036.03
2022-08-03T10:43:50.901Z,101030.38
2022-08-03T10:46:23.787Z,101042.13
2022-08-03T10:48:56.990Z,101027.94
2022-08-03T10:51:25.515Z,101021.84
2022-08-03T10:53:54.563Z,101016.75
2022-08-03T10:56:50.719Z,101020.38
2022-08-03T10:59:27.416Z,101014.38
2022-08-03T11:01:59.799Z,101019.56
2022-08-03T11:04:29.541Z,101006.00
2022-08-03T11:07:15.794Z,101003.59
2022-08-03T11:09:44.161Z,101005.25
2022-08-03T11:12:21.513Z,101006.84
2022-08-03T11:14:58.021Z,100998.44
2022-08-03T11:17:27.618Z,101000.47
2022-08-03T11:19:56.930Z,100993.91
2022-08-03T11:22:25.689Z,101006.84
2022-08-03T11:24:57.530Z,101003.16
2022-08-03T11:27:33.933Z,100998.25
2022-08-03T11:30:04.286Z,100998.97
2022-08-03T11:32:42.401Z,100991.34
2022-08-03T11:35:27.597Z,100994.25
2022-08-03T11:38:03.194Z,100995.09
2022-08-03T11:40:33.923Z,100992.66
2022-08-03T11:43:30.773Z,100988.38
2022-08-03T11:45:59.156Z,100991.53
2022-08-03T11:48:28.053Z,100991.56
2022-08-03T11:50:57.924Z,100985.66
2022-08-03T11:53:28.677Z,100978.47
2022-08-03T11:55:58.387Z,100973.16
2022-08-03T11:59:16.385Z,100967.47
2022-08-03T12:01:22.860Z,100971.09
2022-08-03T12:03:50.525Z,100964.22
2022-08-03T12:06:18.346Z,100962.88
2022-08-03T12:08:45.751Z,100961.03
2022-08-03T12:11:13.809Z,100952.03
2022-08-03T12:14:33.035Z,100959.88
2022-08-03T12:16:31.578Z,100957.13
2022-08-03T12:18:59.323Z,100956.03
2022-08-03T12:21:26.827Z,100944.84
2022-08-03T12:24:00.201Z,100950.13
2022-08-03T12:26:28.451Z,100955.00
2022-08-03T12:28:56.026Z,100954.00
2022-08-03T12:31:23.243Z,100953.69
2022-08-03T12:33:58.772Z,100952.28
2022-08-03T12:36:28.910Z,100944.31
2022-08-03T12:38:57.849Z,100969.78
2022-08-03T12:41:34.194Z,100951.09
2022-08-03T12:44:03.531Z,100957.03
2022-08-03T12:46:34.723Z,100948.69
2022-08-03T12:49:03.702Z,100949.66
2022-08-03T12:51:34.615Z,100949.94
2022-08-03T12:54:02.144Z,100949.06
2022-08-03T12:56:29.606Z,100945.59
2022-08-03T12:58:56.925Z,100933.53
2022-08-03T13:01:24.573Z,100950.47
2022-08-03T13:03:53.878Z,100939.22
2022-08-03T13:06:22.708Z,100935.28
2022-08-03T13:08:51.319Z,100947.75
2022-08-03T13:11:19.417Z,100938.16
2022-08-03T13:13:46.677Z,100930.47
2022-08-03T13:16:19.012Z,100932.06
2022-08-03T13:18:47.212Z,100932.53
2022-08-03T13:21:19.041Z,100935.34
2022-08-03T13:23:46.488Z,100930.81
2022-08-03T13:26:13.722Z,100926.72
2022-08-03T13:28:40.949Z,100916.34
2022-08-03T13:31:08.144Z,100924.22
2022-08-03T13:33:35.492Z,100918.94
2022-08-03T13:36:02.824Z,100913.28
2022-08-03T13:38:30.250Z,100916.56
2022-08-03T13:40:57.938Z,100930.38
2022-08-03T13:43:25.297Z,100917.41
2022-08-03T13:45:57.937Z,100919.50
2022-08-03T13:48:36.664Z,100908.88
2022-08-03T13:51:11.564Z,100899.72
2022-08-03T13:53:49.223Z,100896.38
2022-08-03T13:56:16.445Z,100898.56
2022-08-03T13:58:43.766Z,100901.25
2022-08-03T14:01:11.447Z,100901.53
2022-08-03T14:03:38.985Z,100896.28
2022-08-03T14:06:06.252Z,100887.88
2022-08-03T14:08:33.459Z,100886.97
2022-08-03T14:11:00.750Z,100890.47
2022-08-03T14:13:27.985Z,100887.50
2022-08-03T14:15:55.725Z,100878.97
2022-08-03T14:18:27.937Z,100887.16
2022-08-03T14:21:05.018Z,100884.25
2022-08-03T14:23:33.798Z,100874.47
2022-08-03T14:26:03.246Z,100876.25
2022-08-03T14:28:30.506Z,100878.66
2022-08-03T14:30:57.879Z,100872.56
2022-08-03T14:33:25.222Z,100871.84
2022-08-03T14:35:52.642Z,100869.47
2022-08-03T14:38:19.962Z,100866.28
2022-08-03T14:40:47.421Z,100873.09
2022-08-03T14:43:14.975Z,100860.69
2022-08-03T14:45:45.200Z,100861.47
2022-08-03T14:50:28.954Z,100858.28
2022-08-03T14:50:59.889Z,100853.13
2022-08-03T14:53:28.707Z,100860.69
2022-08-03T14:55:58.920Z,100854.31
2022-08-03T14:58:27.035Z,100844.75
2022-08-03T15:00:59.185Z,100847.94
2022-08-03T15:03:26.516Z,100842.38
2022-08-03T15:05:54.682Z,100841.13
2022-08-03T15:08:25.046Z,100840.72
2022-08-03T15:10:55.438Z,100839.16
2022-08-03T15:13:22.774Z,100835.19
2022-08-03T15:15:50.147Z,100832.75
2022-08-03T15:18:17.554Z,100834.38
2022-08-03T15:21:08.129Z,100825.59
2022-08-03T15:23:55.510Z,100828.38
2022-08-03T15:26:33.935Z,100823.59
2022-08-03T15:29:03.532Z,100818.78
2022-08-03T15:31:33.841Z,100820.00
2022-08-03T15:34:01.083Z,100819.97
2022-08-03T15:36:30.941Z,100818.38
2022-08-03T15:38:58.213Z,100816.41
2022-08-03T15:41:25.613Z,100808.84
2022-08-03T15:43:53.377Z,100807.63
2022-08-03T15:46:29.277Z,100812.06
2022-08-03T15:48:59.180Z,100810.81
2022-08-03T15:51:28.880Z,100800.44
2022-08-03T15:53:57.439Z,100803.56
2022-08-03T15:56:27.247Z,100804.38
2022-08-03T15:59:09.623Z,100800.78
2022-08-03T16:01:43.531Z,100803.25
2022-08-03T16:04:13.271Z,100797.66
2022-08-03T16:06:40.672Z,100788.81
2022-08-03T16:09:24.039Z,100788.47
2022-08-03T16:11:57.891Z,100796.06
2022-08-03T16:14:32.239Z,100780.91
2022-08-03T16:17:05.386Z,100783.72
2022-08-03T16:19:32.993Z,100783.31
2022-08-03T16:22:00.952Z,100772.13
2022-08-03T16:24:28.560Z,100784.09
2022-08-03T16:26:58.347Z,100786.09
2022-08-03T16:29:28.541Z,100777.72
2022-08-03T16:31:55.737Z,100780.91
2022-08-03T16:34:23.015Z,100776.50
2022-08-03T16:36:50.302Z,100778.91
2022-08-03T16:39:17.710Z,100780.50
2022-08-03T16:41:54.347Z,100778.88
2022-08-03T16:44:39.919Z,100782.88
2022-08-03T16:47:07.356Z,100781.63
2022-08-03T16:49:53.638Z,100778.06
2022-08-03T16:52:22.882Z,100781.25
2022-08-03T16:54:53.085Z,100780.84
2022-08-03T16:57:58.142Z,100781.69
2022-08-03T17:00:12.227Z,100770.50
2022-08-03T17:03:04.080Z,100776.06
2022-08-03T17:05:32.641Z,100774.88
2022-08-03T17:08:15.465Z,100769.69
2022-08-03T17:10:44.482Z,100770.94
2022-08-03T17:13:22.082Z,100769.28
2022-08-03T17:16:00.698Z,100777.66
2022-08-03T17:18:32.541Z,100774.47
2022-08-03T17:21:00.364Z,100773.66
2022-08-03T17:23:35.398Z,100783.63
2022-08-03T17:26:04.363Z,100779.66
2022-08-03T17:28:49.246Z,100789.22
2022-08-03T17:31:31.290Z,100784.03
2022-08-03T17:34:04.631Z,100787.22
2022-08-03T17:37:02.298Z,100791.19
2022-08-03T17:39:41.689Z,100786.41
2022-08-03T17:42:30.597Z,100782.78
2022-08-03T17:44:57.724Z,100785.97
2022-08-03T17:47:29.136Z,100783.16
2022-08-03T17:50:24.832Z,100791.94
2022-08-03T17:53:01.701Z,100798.28
2022-08-03T17:55:57.042Z,100802.66
2022-08-03T17:58:41.297Z,100793.50
2022-08-03T18:02:00.845Z,100800.59
2022-08-03T18:04:21.764Z,100807.78
2022-08-03T18:06:58.978Z,100812.16
2022-08-03T18:10:03.838Z,100810.91
2022-08-03T18:12:16.337Z,100807.72
2022-08-03T18:14:57.885Z,100805.31
2022-08-03T18:17:55.683Z,100798.13
2022-08-03T18:20:32.859Z,100811.66
2022-08-03T18:23:04.855Z,100810.88
2022-08-03T18:25:42.754Z,100806.47
2022-08-03T18:28:14.209Z,100808.06
2022-08-03T18:30:54.144Z,100806.78
2022-08-03T18:34:20.035Z,100812.19
2022-08-03T18:36:17.743Z,100803.41
2022-08-03T18:38:47.268Z,100808.16
2022-08-03T18:41:20.680Z,100808.16
2022-08-03T18:44:06.740Z,100809.31
2022-08-03T18:46:53.704Z,100810.97
2022-08-03T18:49:56.470Z,100809.72
2022-08-03T18:52:56.284Z,100809.69
2022-08-03T18:56:02.109Z,100814.06
2022-08-03T18:58:45.465Z,100813.28
2022-08-03T19:02:00.707Z,100816.84
2022-08-03T19:04:35.588Z,100818.38
2022-08-03T19:07:04.945Z,100819.19
2022-08-03T19:09:48.843Z,100826.31
2022-08-03T19:12:30.716Z,100825.72
2022-08-03T19:15:10.363Z,100838.22
2022-08-03T19:17:50.185Z,100830.22
2022-08-03T19:20:30.991Z,100831.44
2022-08-03T19:22:58.973Z,100838.56
2022-08-03T19:25:34.480Z,100838.41
2022-08-03T19:28:07.371Z,100838.78
2022-08-03T19:30:38.903Z,100845.09
2022-08-03T19:33:09.981Z,100848.28
2022-08-03T19:35:51.678Z,100845.09
2022-08-03T19:38:28.300Z,100838.00
2022-08-03T19:41:03.685Z,100852.13
2022-08-03T19:43:53.330Z,100849.00
2022-08-03T19:46:31.154Z,100848.84
2022-08-03T19:49:02.189Z,100861.28
2022-08-03T19:52:01.628Z,100858.81
2022-08-03T19:54:29.390Z,100858.69
2022-08-03T19:57:02.013Z,100863.44
2022-08-03T19:59:29.307Z,100865.47
2022-08-03T20:01:56.798Z,100869.72
2022-08-03T20:04:24.236Z,100876.72
2022-08-03T20:06:57.296Z,100880.59
2022-08-03T20:09:24.545Z,100870.69
2022-08-03T20:11:57.795Z,100877.31
2022-08-03T20:14:26.572Z,100878.88
2022-08-03T20:16:54.457Z,100884.13
2022-08-03T20:19:32.503Z,100879.22
2022-08-03T20:22:02.403Z,100889.44
2022-08-03T20:24:32.750Z,100884.28
2022-08-03T20:27:05.193Z,100888.56
2022-08-03T20:30:05.220Z,100880.66
2022-08-03T20:32:24.982Z,100883.78
2022-08-03T20:34:52.935Z,100887.38
2022-08-03T20:37:20.665Z,100879.56
2022-08-03T20:39:49.775Z,100886.94
2022-08-03T20:42:21.591Z,100890.06
2022-08-03T20:45:04.664Z,100888.56
2022-08-03T20:47:35.673Z,100884.22
2022-08-03T20:50:07.501Z,100888.34
2022-08-03T20:52:43.758Z,100884.09
2022-08-03T20:55:20.474Z,100888.13
2022-08-03T20:58:07.078Z,100892.31
2022-08-03T21:00:37.043Z,100890.09
2022-08-03T21:03:06.801Z,100895.91
2022-08-03T21:05:51.194Z,100881.97
2022-08-03T21:08:21.550Z,100895.16
2022-08-03T21:10:49.832Z,100896.63
2022-08-03T21:13:25.106Z,100903.19
2022-08-03T21:16:11.962Z,100910.59
2022-08-03T21:18:44.731Z,100908.56
2022-08-03T21:21:14.179Z,100906.94
2022-08-03T21:23:49.018Z,100909.41
2022-08-03T21:26:18.224Z,100905.97
2022-08-03T21:28:46.868Z,100901.44
2022-08-03T21:31:22.353Z,100907.56
2022-08-03T21:33:57.367Z,100910.25
2022-08-03T21:36:26.089Z,100910.91
2022-08-03T21:38:56.998Z,100910.44
2022-08-03T21:41:29.409Z,100916.06
2022-08-03T21:43:56.878Z,100924.63
2022-08-03T21:46:24.353Z,100918.50
2022-08-03T21:48:56.407Z,100915.13
2022-08-03T21:51:43.657Z,100919.69
2022-08-03T21:54:11.263Z,100921.63
2022-08-03T21:56:42.400Z,100925.31
2022-08-03T21:59:13.746Z,100929.81
2022-08-03T22:01:49.350Z,100924.25
2022-08-03T22:04:38.780Z,100928.38
2022-08-03T22:07:10.385Z,100930.56
2022-08-03T22:09:50.124Z,100927.19
2022-08-03T22:12:23.884Z,100929.63
2022-08-03T22:15:01.446Z,100945.00
2022-08-03T22:17:55.682Z,100941.66
2022-08-03T22:20:21.871Z,100942.97
2022-08-03T22:22:56.076Z,100943.09
2022-08-03T22:25:27.210Z,100948.38
2022-08-03T22:27:54.643Z,100938.41
2022-08-03T22:30:22.023Z,100943.59
2022-08-03T22:32:50.437Z,100947.38
2022-08-03T22:35:17.899Z,100953.44
2022-08-03T22:37:45.770Z,100953.22
2022-08-03T22:40:14.241Z,100956.59
2022-08-03T22:42:44.472Z,100950.25
2022-08-03T22:46:06.324Z,100959.88
2022-08-03T22:48:06.093Z,100960.53
2022-08-03T22:50:34.066Z,100957.03
2022-08-03T22:53:01.502Z,100955.56
2022-08-03T22:55:31.567Z,100962.72
2022-08-03T22:57:58.969Z,100960.47
2022-08-03T23:00:26.389Z,100971.50
2022-08-03T23:02:54.139Z,100962.75
2022-08-03T23:06:01.979Z,100971.91
2022-08-03T23:08:11.713Z,100970.22
2022-08-03T23:10:42.600Z,100966.47
2022-08-03T23:13:15.919Z,100969.47
2022-08-03T23:15:45.465Z,100978.31
2022-08-03T23:18:15.226Z,100980.00
2022-08-03T23:20:42.609Z,100973.31
2022-08-03T23:23:14.568Z,100976.66
2022-08-03T23:25:49.746Z,100983.44
2022-08-03T23:28:19.449Z,100980.22
2022-08-03T23:30:49.178Z,100971.91
2022-08-03T23:33:16.878Z,100971.59
2022-08-03T23:36:27.678Z,100976.41
2022-08-03T23:38:44.366Z,100968.69
2022-08-03T23:41:16.652Z,100974.69
2022-08-03T23:43:51.784Z,100975.34
2022-08-03T23:46:24.440Z,100966.66
2022-08-03T23:48:56.286Z,100973.47
2022-08-03T23:51:31.081Z,100971.69
2022-08-03T23:54:02.496Z,100971.47
2022-08-03T23:56:39.300Z,100969.13
2022-08-03T23:59:30.310Z,100968.91
